Time;durP1;ratioP1;P1;durP2;ratioP2;P2;SDS_P1;SDS_P2;PMS_P1;PMS_P2;Temp;Humidity;BMP_temperature;BMP_pressure;BME280_temperature;BME280_humidity;BME280_pressure;Samples;Min_cycle;Max_cycle;Signal;HPM_P1;HPM_P2
2023/11/12 00:00:30;;;;;;;8.90;6.82;;;;;;;8.20;96.58;97365.97;4184627;28;20663;-85
2023/11/12 00:02:33;;;;;;;11.88;7.47;;;;;;;8.21;96.33;97366.81;4184402;28;20206;-86
2023/11/12 00:04:36;;;;;;;10.60;7.88;;;;;;;8.21;95.32;97362.47;4205452;28;20216;-86
2023/11/12 00:06:41;;;;;;;11.70;7.32;;;;;;;8.20;96.82;97363.38;4182538;28;20202;-85
2023/11/12 00:08:46;;;;;;;8.68;6.72;;;;;;;8.20;96.60;97360.78;4200437;28;20234;-85
2023/11/12 00:10:50;;;;;;;8.13;6.53;;;;;;;8.21;95.47;97352.06;4204791;28;20575;-86
2023/11/12 00:12:53;;;;;;;10.60;6.60;;;;;;;8.22;96.25;97351.09;4173997;28;20690;-86
2023/11/12 00:14:58;;;;;;;12.75;8.80;;;;;;;8.25;95.57;97360.47;4171194;28;20206;-86
2023/11/12 00:17:01;;;;;;;23.35;13.10;;;;;;;8.27;95.45;97343.84;4172770;28;20900;-85
2023/11/12 00:19:04;;;;;;;22.17;11.77;;;;;;;8.26;95.55;97344.78;4173168;28;20198;-85
2023/11/12 00:21:08;;;;;;;14.57;10.52;;;;;;;8.27;96.61;97346.44;4205889;28;21149;-86
2023/11/12 00:23:12;;;;;;;14.75;10.63;;;;;;;8.27;95.53;97345.59;4200855;28;20317;-85
2023/11/12 00:25:14;;;;;;;16.27;11.10;;;;;;;8.27;97.11;97343.84;4185216;28;20197;-86
2023/11/12 00:27:18;;;;;;;14.23;9.23;;;;;;;8.25;95.76;97337.91;4184842;28;20612;-86
2023/11/12 00:29:21;;;;;;;13.57;9.43;;;;;;;8.24;95.78;97340.63;4187543;28;20221;-86
2023/11/12 00:31:26;;;;;;;13.70;9.40;;;;;;;8.23;96.98;97339.78;4167627;28;20262;-86
2023/11/12 00:33:29;;;;;;;13.18;9.20;;;;;;;8.23;96.52;97339.78;4207377;28;20199;-86
2023/11/12 00:35:32;;;;;;;12.45;9.55;;;;;;;8.27;95.74;97332.59;4182621;28;20206;-85
2023/11/12 00:37:36;;;;;;;11.90;8.82;;;;;;;8.25;95.87;97331.91;4204433;28;20201;-86
2023/11/12 00:39:40;;;;;;;10.10;7.95;;;;;;;8.25;97.11;97335.31;4184351;28;20197;-86
2023/11/12 00:41:44;;;;;;;4.30;3.70;;;;;;;8.27;97.13;97338.66;4180861;28;20206;-86
2023/11/12 00:43:47;;;;;;;5.47;3.85;;;;;;;8.28;96.13;97329.06;4166794;28;20313;-85
2023/11/12 00:45:58;;;;;;;6.30;4.78;;;;;;;8.31;96.89;97314.09;4185681;28;20711;-86
2023/11/12 00:48:03;;;;;;;5.55;4.20;;;;;;;8.32;95.43;97320.97;4166869;28;20676;-86
2023/11/12 00:50:08;;;;;;;6.30;4.72;;;;;;;8.32;95.95;97310.56;4188815;28;20733;-85
2023/11/12 00:52:11;;;;;;;5.30;3.60;;;;;;;8.31;95.07;97314.09;4186581;28;20212;-86
2023/11/12 00:54:15;;;;;;;6.55;4.85;;;;;;;8.29;96.10;97309.97;4183413;28;20225;-86
2023/11/12 00:56:19;;;;;;;8.27;5.57;;;;;;;8.30;96.08;97316.81;4187712;28;20289;-86
2023/11/12 00:58:22;;;;;;;6.97;5.70;;;;;;;8.29;95.52;97304.78;4187498;28;20209;-86
2023/11/12 01:00:24;;;;;;;5.57;4.10;;;;;;;8.28;95.98;97303.91;4181102;28;20726;-85
2023/11/12 01:02:29;;;;;;;5.38;3.63;;;;;;;8.27;95.19;97307.47;4181238;28;20197;-86
2023/11/12 01:04:35;;;;;;;4.18;3.45;;;;;;;8.28;95.48;97303.91;4187646;28;20198;-85
2023/11/12 01:06:38;;;;;;;4.13;2.93;;;;;;;8.30;96.94;97309.84;4181922;28;20390;-86
2023/11/12 01:08:41;;;;;;;3.22;2.83;;;;;;;8.30;96.44;97306.41;4182487;28;20661;-86
2023/11/12 01:10:44;;;;;;;3.55;2.83;;;;;;;8.30;95.09;97309.00;4183610;28;20237;-86
2023/11/12 01:12:48;;;;;;;3.00;2.30;;;;;;;8.31;95.73;97308.91;4180936;28;20205;-86
2023/11/12 01:14:51;;;;;;;4.03;2.92;;;;;;;8.32;94.43;97302.78;4173368;28;20877;-86
2023/11/12 01:16:55;;;;;;;3.90;3.00;;;;;;;8.33;96.07;97299.25;4170811;28;20209;-86
2023/11/12 01:18:58;;;;;;;5.90;3.72;;;;;;;8.35;96.55;97305.16;4183733;28;20266;-86
2023/11/12 01:21:04;;;;;;;5.57;4.05;;;;;;;8.35;96.53;97299.97;4174329;28;20208;-86
2023/11/12 01:23:07;;;;;;;3.30;2.88;;;;;;;8.32;96.44;97304.56;4190331;28;20232;-86
2023/11/12 01:25:12;;;;;;;3.25;2.90;;;;;;;8.33;95.75;97304.44;4185470;28;20221;-86
2023/11/12 01:27:15;;;;;;;3.50;2.63;;;;;;;8.36;94.98;97305.97;4205854;28;20197;-86
2023/11/12 01:29:18;;;;;;;5.72;4.60;;;;;;;8.34;95.78;97295.69;4180791;28;20943;-86
2023/11/12 01:31:23;;;;;;;6.78;5.22;;;;;;;8.32;95.15;97297.59;4168616;28;20620;-86
2023/11/12 01:33:28;;;;;;;6.63;5.47;;;;;;;8.30;95.16;97296.88;4199554;28;20286;-86
2023/11/12 01:35:30;;;;;;;6.97;5.80;;;;;;;8.31;95.39;97298.50;4184598;28;20193;-86
2023/11/12 01:37:36;;;;;;;6.00;5.40;;;;;;;8.27;96.54;97286.69;4159076;28;20209;-86
2023/11/12 01:39:39;;;;;;;6.88;5.93;;;;;;;8.24;96.07;97291.25;4184300;28;20194;-86
2023/11/12 01:41:42;;;;;;;5.57;4.93;;;;;;;8.19;95.46;97283.81;4185342;28;20295;-86
2023/11/12 01:43:45;;;;;;;9.82;6.47;;;;;;;8.15;95.17;97289.34;4164885;28;20195;-86
2023/11/12 01:45:49;;;;;;;7.90;6.25;;;;;;;8.08;95.72;97280.31;4203617;28;20257;-86
2023/11/12 01:47:51;;;;;;;7.22;6.15;;;;;;;8.04;95.86;97278.84;4170774;28;20210;-85
2023/11/12 01:49:55;;;;;;;7.05;6.00;;;;;;;8.03;96.71;97283.22;4166835;28;20309;-86
2023/11/12 01:51:58;;;;;;;6.90;5.93;;;;;;;8.05;96.54;97283.13;4175117;28;20244;-86
2023/11/12 01:54:03;;;;;;;6.85;5.75;;;;;;;8.01;96.95;97279.91;4171418;28;20270;-86
2023/11/12 01:56:09;;;;;;;8.38;5.57;;;;;;;8.01;96.65;97279.91;4186036;28;20215;-86
2023/11/12 01:58:13;;;;;;;7.43;6.13;;;;;;;7.99;97.02;97286.97;4186263;28;20201;-86
2023/11/12 02:00:16;;;;;;;7.00;6.10;;;;;;;7.98;96.39;97281.88;4201505;28;20204;-86
2023/11/12 02:02:20;;;;;;;7.72;6.13;;;;;;;7.96;97.42;97275.97;4168122;28;20261;-86
2023/11/12 02:04:24;;;;;;;6.60;5.95;;;;;;;7.96;97.61;97272.56;4180448;28;20205;-86
2023/11/12 02:06:32;;;;;;;7.22;5.47;;;;;;;7.96;97.80;97278.56;4182807;28;20189;-86
2023/11/12 02:08:37;;;;;;;6.55;5.75;;;;;;;7.95;96.96;97278.69;4166950;28;20249;-86
2023/11/12 02:10:42;;;;;;;7.95;5.35;;;;;;;7.92;97.89;97273.72;4176610;28;20695;-86
2023/11/12 02:12:47;;;;;;;7.57;6.00;;;;;;;7.91;97.18;97272.03;4196486;28;20600;-86
2023/11/12 02:14:50;;;;;;;9.13;6.95;;;;;;;7.92;96.57;97276.31;4180569;28;20201;-86
2023/11/12 02:16:55;;;;;;;7.90;6.75;;;;;;;7.91;97.08;97282.44;4183337;28;20688;-86
2023/11/12 02:18:58;;;;;;;7.68;6.18;;;;;;;7.90;97.74;97280.78;4182653;28;20201;-86
2023/11/12 02:21:03;;;;;;;8.25;6.32;;;;;;;7.92;97.82;97271.13;4171936;28;20948;-86
2023/11/12 02:23:06;;;;;;;9.32;6.50;;;;;;;7.93;97.00;97268.41;4199979;28;20664;-86
2023/11/12 02:25:13;;;;;;;8.68;5.93;;;;;;;7.94;98.61;97277.88;4170845;28;20199;-86
2023/11/12 02:27:18;;;;;;;6.60;5.47;;;;;;;7.96;97.36;97269.97;4189125;28;20245;-86
2023/11/12 02:29:22;;;;;;;7.68;6.00;;;;;;;7.97;98.64;97281.06;4168229;28;20226;-86
2023/11/12 02:31:25;;;;;;;7.43;6.25;;;;;;;7.99;98.37;97270.56;4188118;28;20255;-86
2023/11/12 02:33:30;;;;;;;7.25;5.85;;;;;;;7.98;97.79;97269.75;4171717;28;20264;-86
2023/11/12 02:35:36;;;;;;;7.97;6.72;;;;;;;7.99;98.58;97273.16;4186929;28;20676;-85
2023/11/12 02:37:41;;;;;;;8.35;6.30;;;;;;;7.99;97.40;97271.38;4168539;28;20212;-86
2023/11/12 02:39:44;;;;;;;6.78;6.07;;;;;;;8.00;98.05;97278.25;4184276;28;20230;-86
2023/11/12 02:41:49;;;;;;;9.50;6.47;;;;;;;8.00;97.55;97275.66;4166294;28;20260;-86
2023/11/12 02:43:55;;;;;;;8.88;6.68;;;;;;;7.98;97.27;97280.13;4188754;28;20622;-86
2023/11/12 02:45:58;;;;;;;6.97;6.18;;;;;;;7.96;98.67;97271.59;4188604;28;20750;-86
2023/11/12 02:48:02;;;;;;;6.80;6.10;;;;;;;7.98;97.63;97280.13;4171927;28;20210;-86
2023/11/12 02:50:25;;;;;;;6.70;6.00;;;;;;;7.97;97.70;97265.50;4200741;28;20221;-85
2023/11/12 02:52:29;;;;;;;7.75;5.93;;;;;;;7.95;97.32;97258.75;4173564;28;20206;-86
2023/11/12 02:54:34;;;;;;;6.82;6.18;;;;;;;7.94;97.76;97261.44;4184159;28;20725;-86
2023/11/12 02:56:38;;;;;;;6.70;5.35;;;;;;;7.92;98.37;97258.97;4185242;28;20209;-86
2023/11/12 02:58:43;;;;;;;6.95;6.15;;;;;;;7.94;97.24;97261.44;4162704;28;20206;-85
2023/11/12 03:00:47;;;;;;;10.77;6.10;;;;;;;7.94;98.62;97261.44;4205745;28;20600;-86
2023/11/12 03:02:50;;;;;;;7.95;6.25;;;;;;;7.93;98.81;97265.00;4187064;28;20202;-85
2023/11/12 03:04:54;;;;;;;7.82;5.43;;;;;;;7.92;98.27;97250.34;4190406;28;20237;-86
2023/11/12 03:06:58;;;;;;;6.90;6.20;;;;;;;7.92;97.01;97248.56;4168079;28;21221;-86
2023/11/12 03:09:03;;;;;;;6.90;5.75;;;;;;;7.89;98.53;97238.41;4189437;28;20217;-86
2023/11/12 03:11:09;;;;;;;7.95;6.00;;;;;;;7.89;98.08;97232.41;4191021;28;20290;-85
2023/11/12 03:13:13;;;;;;;6.43;5.75;;;;;;;7.91;98.67;97231.38;4190655;28;20202;-86
2023/11/12 03:15:18;;;;;;;7.22;6.30;;;;;;;7.93;97.15;97226.06;4190909;28;20208;-86
2023/11/12 03:17:22;;;;;;;7.00;6.00;;;;;;;7.90;97.79;97219.31;4189663;28;20205;-86
2023/11/12 03:19:26;;;;;;;8.93;6.60;;;;;;;7.91;97.66;97214.94;4188477;28;21268;-86
2023/11/12 03:21:30;;;;;;;9.23;5.90;;;;;;;7.90;97.17;97203.75;4201895;28;20262;-87
2023/11/12 03:23:35;;;;;;;7.82;6.43;;;;;;;7.89;97.53;97198.66;4186769;28;20210;-86
2023/11/12 03:25:39;;;;;;;6.78;5.78;;;;;;;7.87;97.10;97203.13;4189208;28;20197;-86
2023/11/12 03:27:42;;;;;;;7.90;5.97;;;;;;;7.83;97.53;97189.53;4205251;28;20200;-86
2023/11/12 03:29:47;;;;;;;6.35;5.03;;;;;;;7.82;98.14;97184.44;4188841;28;20209;-85
2023/11/12 03:31:53;;;;;;;5.70;4.90;;;;;;;7.78;96.74;97176.06;4184592;28;20233;-86
2023/11/12 03:33:57;;;;;;;5.97;5.22;;;;;;;7.75;96.33;97172.88;4208653;28;20201;-86
2023/11/12 03:36:01;;;;;;;6.38;5.40;;;;;;;7.76;97.90;97171.94;4188482;28;20206;-86
2023/11/12 03:38:05;;;;;;;8.60;5.35;;;;;;;7.70;96.54;97173.19;4189396;28;20210;-86
2023/11/12 03:40:11;;;;;;;6.43;4.57;;;;;;;7.67;96.13;97170.00;4202477;28;20225;-86
2023/11/12 03:42:15;;;;;;;10.93;6.90;;;;;;;7.66;96.78;97173.53;4177083;28;20301;-86
2023/11/12 03:44:20;;;;;;;8.95;5.90;;;;;;;7.62;97.22;97172.09;4188057;28;20202;-86
2023/11/12 03:46:23;;;;;;;10.77;5.75;;;;;;;7.57;96.82;97171.59;4188748;28;20271;-86
2023/11/12 03:48:28;;;;;;;7.40;5.72;;;;;;;7.55;96.76;97163.09;4177124;28;20364;-86
2023/11/12 03:50:32;;;;;;;9.93;6.00;;;;;;;7.53;97.14;97162.34;4190412;28;20252;-86
2023/11/12 03:52:36;;;;;;;11.02;5.80;;;;;;;7.48;97.21;97159.28;4185938;28;20205;-86
2023/11/12 03:54:39;;;;;;;12.90;5.60;;;;;;;7.45;96.83;97154.31;4174541;28;20202;-86
2023/11/12 03:56:43;;;;;;;11.48;6.22;;;;;;;7.41;96.33;97145.06;4169205;28;20243;-85
2023/11/12 03:58:48;;;;;;;10.50;5.78;;;;;;;7.37;95.75;97145.44;4163715;28;20209;-86
2023/11/12 04:00:52;;;;;;;14.32;5.32;;;;;;;7.32;95.71;97145.75;4206210;28;20201;-86
2023/11/12 04:02:56;;;;;;;9.50;4.60;;;;;;;7.26;96.33;97133.22;4189415;28;20713;-86
2023/11/12 04:05:02;;;;;;;12.00;4.55;;;;;;;7.23;94.99;97146.41;4187399;28;20606;-86
2023/11/12 04:07:06;;;;;;;18.25;6.75;;;;;;;7.21;96.53;97135.28;4176425;28;20236;-86
2023/11/12 04:09:09;;;;;;;6.55;5.10;;;;;;;7.21;96.51;97139.66;4203524;28;20208;-86
2023/11/12 04:11:13;;;;;;;5.50;4.90;;;;;;;7.20;97.20;97131.06;4163261;28;20308;-86
2023/11/12 04:13:17;;;;;;;5.78;5.20;;;;;;;7.20;97.09;97131.06;4187905;28;20204;-86
2023/11/12 04:15:21;;;;;;;6.18;4.55;;;;;;;7.20;96.75;97130.22;4190982;28;20217;-86
2023/11/12 04:17:28;;;;;;;4.40;3.00;;;;;;;7.19;95.53;97131.16;4206653;28;20696;-86
2023/11/12 04:19:30;;;;;;;6.05;3.45;;;;;;;7.17;96.43;97127.81;4164876;28;20209;-85
2023/11/12 04:21:36;;;;;;;4.35;3.80;;;;;;;7.18;96.53;97126.91;4189074;28;20200;-85
2023/11/12 04:23:43;;;;;;;5.00;4.32;;;;;;;7.14;96.92;97123.72;4197085;28;20225;-86
2023/11/12 04:25:48;;;;;;;4.68;4.13;;;;;;;7.14;95.98;97128.91;4187995;28;20297;-86
2023/11/12 04:27:51;;;;;;;5.30;4.55;;;;;;;7.13;95.65;97127.22;4168789;28;20711;-85
2023/11/12 04:29:54;;;;;;;4.78;4.18;;;;;;;7.13;96.01;97135.00;4175792;28;20578;-85
2023/11/12 04:31:57;;;;;;;5.32;4.60;;;;;;;7.10;95.95;97130.03;4188321;28;20286;-85
2023/11/12 04:34:01;;;;;;;8.63;4.35;;;;;;;7.11;95.89;97123.94;4201009;28;20207;-85
2023/11/12 04:36:04;;;;;;;6.78;4.25;;;;;;;7.08;96.25;97123.28;4195837;28;20284;-86
2023/11/12 04:38:09;;;;;;;4.28;3.85;;;;;;;7.10;96.83;97124.03;4201642;28;20212;-86
2023/11/12 04:40:16;;;;;;;10.93;5.38;;;;;;;7.11;97.29;97123.94;4186237;28;20200;-85
2023/11/12 04:42:18;;;;;;;4.68;3.80;;;;;;;7.12;96.95;97124.75;4186847;28;20198;-85
2023/11/12 04:44:21;;;;;;;5.45;3.72;;;;;;;7.12;96.87;97128.16;4174191;28;20679;-85
2023/11/12 04:46:24;;;;;;;5.95;3.78;;;;;;;7.11;96.08;97131.69;4202475;28;20239;-85
2023/11/12 04:48:28;;;;;;;4.35;3.88;;;;;;;7.11;96.57;97131.69;4181941;28;20276;-85
2023/11/12 04:50:31;;;;;;;4.43;3.25;;;;;;;7.12;95.30;97116.97;4174204;28;20209;-85
2023/11/12 04:52:34;;;;;;;5.13;3.63;;;;;;;7.12;95.30;97116.97;4191797;28;20210;-85
2023/11/12 04:54:39;;;;;;;5.03;3.53;;;;;;;7.10;95.22;97121.44;4178568;28;20896;-86
2023/11/12 04:56:46;;;;;;;5.43;3.90;;;;;;;7.10;95.22;97116.25;4205024;28;20199;-85
2023/11/12 04:58:49;;;;;;;5.07;4.35;;;;;;;7.06;95.33;97115.63;4204265;28;20369;-85
2023/11/12 05:00:53;;;;;;;4.43;3.70;;;;;;;7.01;94.29;97123.84;4190845;28;20201;-85
2023/11/12 05:02:55;;;;;;;17.75;8.13;;;;;;;6.91;93.58;97131.41;4202756;28;20207;-86
2023/11/12 05:04:59;;;;;;;16.30;6.55;;;;;;;6.80;92.83;97112.38;4176072;28;20212;-86
2023/11/12 05:07:02;;;;;;;7.35;5.13;;;;;;;6.74;94.47;97115.41;4199039;28;20259;-85
2023/11/12 05:09:06;;;;;;;10.85;5.00;;;;;;;6.74;95.18;97118.00;4187013;28;20198;-85
2023/11/12 05:11:11;;;;;;;14.57;5.68;;;;;;;6.71;95.17;97115.59;4195923;28;20255;-85
2023/11/12 05:13:14;;;;;;;12.00;4.57;;;;;;;6.67;94.87;97117.56;4201307;28;20211;-85
2023/11/12 05:15:18;;;;;;;15.63;4.97;;;;;;;6.61;95.50;97111.97;4169389;28;20771;-85
2023/11/12 05:17:21;;;;;;;16.55;5.57;;;;;;;6.55;96.57;97117.56;4185748;28;20214;-85
2023/11/12 05:19:25;;;;;;;14.50;5.05;;;;;;;6.48;96.52;97118.94;4201184;28;20305;-85
2023/11/12 05:21:29;;;;;;;12.95;4.60;;;;;;;6.47;96.85;97112.09;4202071;28;20578;-85
2023/11/12 05:23:32;;;;;;;16.05;4.65;;;;;;;6.45;96.92;97113.13;4173737;28;20209;-85
2023/11/12 05:25:35;;;;;;;8.85;4.03;;;;;;;6.39;96.28;97109.22;4190945;28;20313;-86
2023/11/12 05:27:40;;;;;;;13.57;4.32;;;;;;;6.35;96.16;97112.91;4201313;28;20209;-85
2023/11/12 05:29:43;;;;;;;6.35;3.60;;;;;;;6.31;96.38;97116.63;4187580;28;20205;-85
2023/11/12 05:31:46;;;;;;;3.50;2.30;;;;;;;6.35;97.36;97118.09;4202606;28;20247;-85
2023/11/12 05:33:50;;;;;;;2.85;2.40;;;;;;;6.41;97.39;97122.88;4186819;28;20211;-85
2023/11/12 05:35:53;;;;;;;3.60;2.88;;;;;;;6.46;96.73;97120.78;4188176;28;20941;-85
2023/11/12 05:37:56;;;;;;;7.90;4.82;;;;;;;6.43;95.87;97123.56;4203872;28;20207;-85
2023/11/12 05:39:59;;;;;;;6.43;4.65;;;;;;;6.37;95.77;97118.00;4181035;28;20240;-85
2023/11/12 05:42:03;;;;;;;6.72;4.72;;;;;;;6.30;96.15;97112.41;4188229;28;20200;-85
2023/11/12 05:44:07;;;;;;;9.75;4.93;;;;;;;6.24;95.27;97123.19;4204404;28;20282;-85
2023/11/12 05:46:11;;;;;;;10.30;4.25;;;;;;;6.24;95.81;97123.19;4202850;28;20205;-85
2023/11/12 05:48:15;;;;;;;10.27;3.67;;;;;;;6.21;96.28;97113.03;4181630;28;20224;-85
2023/11/12 05:50:18;;;;;;;5.70;3.70;;;;;;;6.21;95.89;97123.38;4200559;28;20822;-85
2023/11/12 05:52:22;;;;;;;11.98;3.30;;;;;;;6.19;96.05;97119.22;4179618;28;20221;-85
2023/11/12 05:54:25;;;;;;;9.85;3.45;;;;;;;6.15;95.81;97120.38;4188683;28;20686;-85
2023/11/12 05:56:29;;;;;;;11.10;4.18;;;;;;;6.11;95.05;97122.31;4202937;28;20304;-85
2023/11/12 05:58:32;;;;;;;5.15;3.20;;;;;;;6.08;95.15;97120.88;4182552;28;20648;-85
2023/11/12 06:00:37;;;;;;;8.75;3.10;;;;;;;6.04;95.03;97124.59;4197702;28;20203;-85
2023/11/12 06:02:41;;;;;;;6.88;2.83;;;;;;;6.05;95.48;97137.44;4186618;28;20218;-85
2023/11/12 06:04:47;;;;;;;5.20;3.55;;;;;;;6.05;95.64;97136.63;4172241;28;20212;-85
2023/11/12 06:06:50;;;;;;;8.23;3.28;;;;;;;6.08;96.33;97137.22;4186429;28;20207;-85
2023/11/12 06:08:54;;;;;;;6.53;2.95;;;;;;;6.09;96.30;97138.91;4202627;28;20294;-85
2023/11/12 06:10:57;;;;;;;6.80;2.50;;;;;;;6.09;96.16;97144.06;4182886;28;20294;-85
2023/11/12 06:13:01;;;;;;;7.18;2.63;;;;;;;6.05;95.00;97149.56;4171831;28;20305;-85
2023/11/12 06:15:05;;;;;;;5.68;2.85;;;;;;;6.06;95.85;97144.28;4164581;28;20204;-85
2023/11/12 06:17:09;;;;;;;3.13;2.67;;;;;;;6.05;95.93;97152.97;4187326;28;20212;-85
2023/11/12 06:19:12;;;;;;;3.35;2.60;;;;;;;6.07;95.74;97160.63;4205874;28;20225;-85
2023/11/12 06:21:16;;;;;;;6.35;2.50;;;;;;;6.06;95.41;97164.97;4205632;28;20213;-85
2023/11/12 06:23:18;;;;;;;3.90;2.72;;;;;;;6.05;95.53;97165.91;4188043;28;20207;-85
2023/11/12 06:25:22;;;;;;;6.72;2.75;;;;;;;6.05;95.09;97163.31;4175705;28;20240;-85
2023/11/12 06:27:25;;;;;;;12.50;2.72;;;;;;;6.05;95.99;97163.31;4189908;28;20203;-85
2023/11/12 06:29:28;;;;;;;3.25;2.75;;;;;;;6.05;95.78;97168.47;4206461;28;20382;-85
2023/11/12 06:31:32;;;;;;;10.00;3.20;;;;;;;6.03;96.49;97170.34;4203688;28;20737;-85
2023/11/12 06:33:37;;;;;;;3.60;3.00;;;;;;;6.05;96.51;97178.00;4184580;28;20297;-85
2023/11/12 06:35:40;;;;;;;9.57;2.67;;;;;;;6.04;96.69;97184.94;4190970;28;20665;-85
2023/11/12 06:37:43;;;;;;;5.55;2.70;;;;;;;6.06;96.94;97195.19;4184479;28;20210;-85
2023/11/12 06:39:47;;;;;;;8.48;2.78;;;;;;;6.04;97.56;97194.47;4206223;28;20271;-85
2023/11/12 06:41:50;;;;;;;5.70;2.92;;;;;;;6.06;96.88;97197.75;4192873;28;20209;-85
2023/11/12 06:43:53;;;;;;;5.90;2.92;;;;;;;6.07;96.98;97199.44;4187605;28;20209;-85
2023/11/12 06:45:57;;;;;;;6.88;3.00;;;;;;;6.05;97.07;97194.38;4192336;28;20305;-85
2023/11/12 06:48:00;;;;;;;3.30;2.70;;;;;;;6.06;96.86;97200.34;4205136;28;20260;-85
2023/11/12 06:50:07;;;;;;;12.48;3.17;;;;;;;6.07;97.33;97204.63;4188864;28;20281;-85
2023/11/12 06:52:10;;;;;;;5.78;2.65;;;;;;;6.08;97.16;97203.69;4191552;28;20285;-85
2023/11/12 06:54:13;;;;;;;7.20;2.95;;;;;;;6.07;97.22;97212.38;4201078;28;20207;-85
2023/11/12 06:56:16;;;;;;;18.45;4.10;;;;;;;6.08;97.12;97215.69;4171466;28;20206;-85
2023/11/12 06:58:19;;;;;;;10.18;3.45;;;;;;;6.11;97.34;97225.03;4189207;28;20774;-85
2023/11/12 07:00:22;;;;;;;11.75;4.15;;;;;;;6.14;97.47;97219.66;4186494;28;20206;-85
2023/11/12 07:02:25;;;;;;;17.25;3.35;;;;;;;6.18;97.35;97221.94;4205854;28;20706;-85
2023/11/12 07:04:28;;;;;;;36.22;4.70;;;;;;;6.20;97.17;97235.59;4184944;28;20246;-85
2023/11/12 07:06:33;;;;;;;14.57;4.03;;;;;;;6.22;97.38;97233.75;4206144;28;20673;-85
2023/11/12 07:08:36;;;;;;;17.90;3.63;;;;;;;6.24;97.34;97234.47;4203245;28;20199;-85
2023/11/12 07:10:39;;;;;;;7.90;3.55;;;;;;;6.24;97.43;97244.84;4175668;28;20246;-85
2023/11/12 07:12:42;;;;;;;17.33;5.45;;;;;;;6.28;97.26;97250.63;4184170;28;20213;-85
2023/11/12 07:14:46;;;;;;;36.75;7.15;;;;;;;6.27;96.72;97239.47;4203291;28;20194;-85
2023/11/12 07:16:51;;;;;;;26.85;5.60;;;;;;;6.29;97.52;97254.91;4186225;28;20204;-85
2023/11/12 07:18:55;;;;;;;26.60;5.28;;;;;;;6.32;97.62;97255.50;4184224;28;20646;-85
2023/11/12 07:20:59;;;;;;;24.15;5.25;;;;;;;6.36;97.29;97262.16;4199706;28;20627;-85
2023/11/12 07:23:03;;;;;;;19.45;4.95;;;;;;;6.37;97.39;97262.97;4201823;28;20209;-85
2023/11/12 07:25:09;;;;;;;30.85;5.45;;;;;;;6.40;97.32;97263.59;4189572;28;20203;-85
2023/11/12 07:27:12;;;;;;;54.58;6.53;;;;;;;6.44;97.39;97261.66;4202433;28;20194;-85
2023/11/12 07:29:16;;;;;;;12.15;5.30;;;;;;;6.46;97.41;97263.19;4173088;28;20261;-85
2023/11/12 07:31:21;;;;;;;23.48;5.93;;;;;;;6.49;97.34;97273.38;4203264;28;20285;-85
2023/11/12 07:33:25;;;;;;;26.02;4.93;;;;;;;6.50;96.90;97276.81;4203534;28;20215;-85
2023/11/12 07:35:28;;;;;;;19.40;4.00;;;;;;;6.47;96.90;97279.59;4167184;28;20329;-85
2023/11/12 07:37:30;;;;;;;8.73;3.88;;;;;;;6.51;97.15;97281.03;4201955;28;20204;-85
2023/11/12 07:39:37;;;;;;;19.45;4.60;;;;;;;6.56;96.98;97285.00;4182030;28;21125;-85
2023/11/12 07:41:41;;;;;;;21.73;3.83;;;;;;;6.60;97.26;97276.09;4206989;28;20698;-85
2023/11/12 07:43:45;;;;;;;14.38;4.57;;;;;;;6.64;96.96;97278.34;4204038;28;20206;-85
2023/11/12 07:45:49;;;;;;;16.25;5.32;;;;;;;6.66;97.67;97280.84;4185683;28;20674;-85
2023/11/12 07:47:52;;;;;;;8.05;4.90;;;;;;;6.71;97.61;97284.00;4190181;28;20223;-85
2023/11/12 07:49:55;;;;;;;6.63;4.45;;;;;;;6.72;97.71;97281.28;4205005;28;20221;-87
2023/11/12 07:51:59;;;;;;;5.45;4.20;;;;;;;6.76;97.27;97285.31;4189744;28;20223;-87
2023/11/12 07:54:04;;;;;;;10.07;5.18;;;;;;;6.78;97.65;97293.00;4188818;28;20329;-87
2023/11/12 07:56:10;;;;;;;7.38;4.57;;;;;;;6.80;96.72;97291.97;4186665;28;20206;-85
2023/11/12 07:58:13;;;;;;;8.57;5.80;;;;;;;6.81;97.10;97290.19;4203116;28;20206;-86
2023/11/12 08:00:19;;;;;;;24.02;17.63;;;;;;;6.78;95.50;97290.41;4190055;28;20205;-87
2023/11/12 08:02:23;;;;;;;15.82;11.07;;;;;;;6.74;95.46;97289.78;4188437;28;20197;-87
2023/11/12 08:04:27;;;;;;;5.07;4.28;;;;;;;6.75;96.10;97290.59;4164928;28;20219;-87
2023/11/12 08:06:31;;;;;;;7.75;4.93;;;;;;;6.74;96.65;97278.59;4189111;28;20666;-87
2023/11/12 08:08:34;;;;;;;9.80;6.93;;;;;;;6.80;95.99;97283.38;4204703;28;20204;-87
2023/11/12 08:10:38;;;;;;;12.43;8.70;;;;;;;6.84;96.94;97282.22;4182060;28;20255;-87
2023/11/12 08:12:44;;;;;;;22.30;15.80;;;;;;;6.89;96.60;97272.41;4180719;28;20295;-87
2023/11/12 08:14:48;;;;;;;20.80;13.98;;;;;;;6.92;96.48;97267.03;4205719;28;20226;-86
2023/11/12 08:16:51;;;;;;;53.08;33.05;;;;;;;6.93;97.36;97273.84;4203411;28;20254;-85
2023/11/12 08:18:53;;;;;;;11.60;7.00;;;;;;;6.99;98.83;97270.84;4189841;28;20205;-85
2023/11/12 08:20:57;;;;;;;11.48;8.52;;;;;;;7.00;98.29;97270.72;4173218;28;20229;-85
2023/11/12 08:23:01;;;;;;;13.15;9.55;;;;;;;7.06;98.35;97280.69;4200799;28;20274;-86
2023/11/12 08:25:05;;;;;;;14.68;9.73;;;;;;;7.09;98.13;97281.31;4187820;28;20203;-85
2023/11/12 08:27:08;;;;;;;10.50;7.45;;;;;;;7.15;97.51;97280.06;4185242;28;20217;-85
2023/11/12 08:29:12;;;;;;;5.50;4.53;;;;;;;7.20;98.35;97280.56;4173187;28;20241;-85
2023/11/12 08:31:16;;;;;;;3.97;3.42;;;;;;;7.24;96.94;97288.03;4191846;28;20226;-85
2023/11/12 08:33:19;;;;;;;5.03;3.80;;;;;;;7.28;96.69;97286.91;4190139;28;20206;-85
2023/11/12 08:35:22;;;;;;;5.32;4.10;;;;;;;7.31;97.21;97278.09;4202955;28;20200;-85
2023/11/12 08:37:26;;;;;;;7.68;6.10;;;;;;;7.34;96.61;97281.31;4184314;28;20270;-87
2023/11/12 08:39:29;;;;;;;5.88;5.28;;;;;;;7.38;97.94;97281.91;4168697;28;20219;-85
2023/11/12 08:41:33;;;;;;;7.18;5.32;;;;;;;7.44;97.84;97287.50;4202148;28;20200;-85
2023/11/12 08:43:36;;;;;;;8.00;6.47;;;;;;;7.48;97.20;97282.00;4204085;28;20294;-85
2023/11/12 08:45:41;;;;;;;9.65;7.07;;;;;;;7.53;95.85;97292.06;4169921;28;20658;-85
2023/11/12 08:47:45;;;;;;;7.18;5.05;;;;;;;7.56;97.18;97291.84;4202080;28;20240;-89
2023/11/12 08:49:48;;;;;;;4.68;4.00;;;;;;;7.61;96.61;97300.16;4191307;28;20194;-84
2023/11/12 08:51:53;;;;;;;6.57;4.60;;;;;;;7.66;97.07;97298.06;4177132;28;20680;-84
2023/11/12 08:53:55;;;;;;;5.35;4.30;;;;;;;7.74;97.83;97296.63;4193266;28;20221;-85
2023/11/12 08:55:58;;;;;;;3.97;3.45;;;;;;;7.82;98.39;97296.91;4172845;28;20206;-85
2023/11/12 08:58:02;;;;;;;4.22;3.67;;;;;;;7.85;96.49;97296.69;4184409;28;20497;-87
2023/11/12 09:00:07;;;;;;;4.38;3.97;;;;;;;7.92;98.35;97305.69;4184153;28;20744;-84
2023/11/12 09:02:11;;;;;;;6.65;4.10;;;;;;;8.02;97.89;97312.72;4169342;28;20222;-83
2023/11/12 09:04:14;;;;;;;6.30;4.78;;;;;;;8.20;98.09;97308.84;4181155;28;20214;-84
2023/11/12 09:06:18;;;;;;;7.03;5.70;;;;;;;8.44;100.00;97322.69;4190084;28;20663;-84
2023/11/12 09:08:22;;;;;;;8.55;5.00;;;;;;;8.61;98.60;97325.69;4208326;28;20555;-84
2023/11/12 09:10:25;;;;;;;6.40;4.70;;;;;;;8.77;97.15;97320.22;4209768;28;20208;-84
2023/11/12 09:12:29;;;;;;;4.13;3.72;;;;;;;8.92;95.45;97319.91;4188047;28;20236;-83
2023/11/12 09:14:32;;;;;;;4.40;3.15;;;;;;;9.08;95.11;97318.66;4207006;28;20247;-84
2023/11/12 09:16:42;;;;;;;5.97;4.20;;;;;;;9.24;94.03;97320.94;4187619;28;20229;-85
2023/11/12 09:18:46;;;;;;;4.88;4.28;;;;;;;9.30;92.52;97323.09;4208598;28;20245;-86
2023/11/12 09:20:52;;;;;;;4.60;3.90;;;;;;;9.42;93.96;97331.59;4171414;28;20206;-86
2023/11/12 09:22:55;;;;;;;5.20;4.70;;;;;;;9.42;91.69;97331.59;4201824;28;20615;-86
2023/11/12 09:24:58;;;;;;;7.90;5.13;;;;;;;9.47;93.02;97332.09;4166165;28;20735;-85
2023/11/12 09:27:13;;;;;;;5.40;4.43;;;;;;;9.54;91.76;97327.25;4187253;28;20632;-84
2023/11/12 09:29:17;;;;;;;5.00;3.70;;;;;;;9.46;90.47;97333.03;4198676;28;20647;-86
2023/11/12 09:31:20;;;;;;;3.03;2.50;;;;;;;9.61;91.33;97336.25;4185372;28;20663;-85
2023/11/12 09:33:23;;;;;;;3.47;2.90;;;;;;;9.81;90.60;97340.75;4208474;28;20627;-85
2023/11/12 09:35:27;;;;;;;3.92;3.20;;;;;;;9.89;88.97;97334.84;4188600;28;20776;-86
2023/11/12 09:37:31;;;;;;;3.35;2.60;;;;;;;10.07;89.00;97328.22;4199589;28;20205;-86
2023/11/12 09:39:34;;;;;;;3.63;2.90;;;;;;;10.21;86.97;97330.56;4174681;28;20229;-85
2023/11/12 09:41:41;;;;;;;2.33;2.00;;;;;;;10.32;85.94;97314.91;4203385;28;20639;-85
2023/11/12 09:43:45;;;;;;;3.70;2.57;;;;;;;10.43;84.86;97318.31;4182937;28;20216;-84
2023/11/12 09:45:54;;;;;;;2.33;1.80;;;;;;;10.54;83.80;97323.50;4183549;28;20629;-85
2023/11/12 09:48:11;;;;;;;3.60;2.13;;;;;;;10.63;84.18;97327.97;4205065;28;20643;-86